sim
Sign-in with your pilot id or email,
or register
Callsign
Passwort

Schedule Details

Flight Number: DLH2043
Departure: Berlin Tegel Airport (EDDT) at 16:00
Arrival: Munich Airport (EDDM) at 17:10
Route: Lufthansa Passenger Schedule. Enter filed route here before submitting Pirep.

Weather Information
Getting current METAR information for EDDT 010120Z 30001KT 1500 R08L/0600N R08R/1100U BCFG BR NSC 09/09 Q1011
Getting current METAR information for EDDM 010120Z 07001KT 1200 0500NE R08L/0500D R08R/1100D BCFG NSC 05/04 Q1011 BECMG 0600 FG

Schedule Frequency

Route Map